Time;durP1;ratioP1;P1;durP2;ratioP2;P2;SDS_P1;SDS_P2;PMS_P1;PMS_P2;Temp;Humidity;BMP_temperature;BMP_pressure;BME280_temperature;BME280_humidity;BME280_pressure;Samples;Min_cycle;Max_cycle;Signal;HPM_P1;HPM_P2
2022/12/04 00:01:40;;;;;;;;;;;2.20;99.90;;;;;;4967103;28;20396;-72
2022/12/04 00:04:06;;;;;;;;;;;2.10;99.90;;;;;;4982354;28;19910;-72
2022/12/04 00:06:32;;;;;;;;;;;2.00;99.90;;;;;;4965153;28;19910;-71
2022/12/04 00:08:59;;;;;;;;;;;2.10;99.90;;;;;;5000889;28;19925;-72
2022/12/04 00:11:26;;;;;;;;;;;2.10;99.90;;;;;;4968643;28;19986;-71
2022/12/04 00:13:51;;;;;;;;;;;2.20;99.90;;;;;;4984480;28;20242;-71
2022/12/04 00:16:18;;;;;;;;;;;2.10;99.90;;;;;;4981424;28;19918;-71
2022/12/04 00:18:44;;;;;;;;;;;2.00;99.90;;;;;;4970908;28;19973;-71
2022/12/04 00:21:10;;;;;;;;;;;2.10;99.90;;;;;;4978219;28;19914;-71
2022/12/04 00:23:37;;;;;;;;;;;2.10;99.90;;;;;;4972383;28;19917;-71
2022/12/04 00:26:04;;;;;;;;;;;2.10;99.90;;;;;;4975988;28;19922;-71
2022/12/04 00:28:29;;;;;;;;;;;2.20;99.90;;;;;;4972206;28;19920;-72
2022/12/04 00:30:55;;;;;;;;;;;2.10;99.90;;;;;;4972385;28;20213;-71
2022/12/04 00:33:20;;;;;;;;;;;2.00;99.90;;;;;;4981443;28;19910;-71
2022/12/04 00:35:46;;;;;;;;;;;2.00;99.90;;;;;;4969258;28;20033;-71
2022/12/04 00:38:11;;;;;;;;;;;1.90;99.90;;;;;;4974164;28;20390;-72
2022/12/04 00:40:37;;;;;;;;;;;2.00;99.90;;;;;;5014430;28;19969;-72
2022/12/04 00:43:02;;;;;;;;;;;2.00;99.90;;;;;;5001764;28;19914;-71
2022/12/04 00:45:28;;;;;;;;;;;2.00;99.90;;;;;;4998657;28;20372;-71
2022/12/04 00:47:54;;;;;;;;;;;2.10;99.90;;;;;;4994506;28;19961;-73
2022/12/04 00:50:19;;;;;;;;;;;2.00;99.90;;;;;;4972426;28;19921;-72
2022/12/04 00:52:45;;;;;;;;;;;2.10;99.90;;;;;;4976966;28;19997;-71
2022/12/04 00:55:10;;;;;;;;;;;2.00;99.90;;;;;;4975390;28;19965;-73
2022/12/04 00:57:36;;;;;;;;;;;1.90;99.90;;;;;;4977480;28;19913;-72
2022/12/04 01:00:03;;;;;;;;;;;1.90;99.90;;;;;;4975218;28;20410;-72
2022/12/04 01:02:29;;;;;;;;;;;1.90;99.90;;;;;;4983583;28;20358;-70
2022/12/04 01:04:54;;;;;;;;;;;1.90;99.90;;;;;;4971506;28;20375;-70
2022/12/04 01:07:20;;;;;;;;;;;1.90;99.90;;;;;;4970861;28;19910;-71
2022/12/04 01:09:45;;;;;;;;;;;1.90;99.90;;;;;;4984425;28;19949;-73
2022/12/04 01:12:11;;;;;;;;;;;1.90;99.90;;;;;;4989415;28;19917;-72
2022/12/04 01:14:36;;;;;;;;;;;1.90;99.90;;;;;;4978701;28;19942;-71
2022/12/04 01:17:02;;;;;;;;;;;2.00;99.90;;;;;;5016419;28;20134;-71
2022/12/04 01:19:27;;;;;;;;;;;2.00;99.90;;;;;;4967487;28;19984;-71
2022/12/04 01:21:53;;;;;;;;;;;2.00;99.90;;;;;;4993730;28;19937;-72
2022/12/04 01:24:18;;;;;;;;;;;2.00;99.90;;;;;;4970692;28;20072;-70
2022/12/04 01:26:44;;;;;;;;;;;2.00;99.90;;;;;;4976215;28;20068;-73
2022/12/04 01:29:09;;;;;;;;;;;2.00;99.90;;;;;;4975720;28;19968;-72
2022/12/04 01:31:35;;;;;;;;;;;2.00;99.90;;;;;;4978141;28;19913;-71
2022/12/04 01:34:00;;;;;;;;;;;2.00;99.90;;;;;;4970065;28;19988;-72
2022/12/04 01:36:27;;;;;;;;;;;2.10;99.90;;;;;;4992127;28;20013;-73
2022/12/04 01:38:53;;;;;;;;;;;2.10;99.90;;;;;;4973209;28;20333;-72
2022/12/04 01:41:21;;;;;;;;;;;2.10;99.90;;;;;;4974620;28;20548;-71
2022/12/04 01:44:25;;;;;;;;;;;2.10;99.90;;;;;;4978484;28;19917;-71
2022/12/04 01:46:51;;;;;;;;;;;2.10;99.90;;;;;;4930473;29;19910;-72
2022/12/04 01:49:18;;;;;;;;;;;2.10;99.90;;;;;;4933047;29;20321;-71
2022/12/04 01:51:48;;;;;;;;;;;2.30;99.90;;;;;;4948418;28;19910;-72
2022/12/04 01:54:17;;;;;;;;;;;2.40;99.90;;;;;;4987887;28;19922;-75
2022/12/04 01:56:45;;;;;;;;;;;2.40;99.90;;;;;;4962848;28;20452;-71
2022/12/04 01:59:11;;;;;;;;;;;2.20;99.90;;;;;;4972555;28;19916;-71
2022/12/04 02:01:41;;;;;;;;;;;2.20;99.90;;;;;;4971778;28;19918;-72
2022/12/04 02:04:06;;;;;;;;;;;2.20;99.90;;;;;;4967525;28;20014;-73
2022/12/04 02:06:32;;;;;;;;;;;2.20;99.90;;;;;;4967539;28;20289;-71
2022/12/04 02:08:57;;;;;;;;;;;2.20;99.90;;;;;;4976051;28;20021;-71
2022/12/04 02:11:49;;;;;;;;;;;2.20;99.90;;;;;;4969653;28;20407;-72
2022/12/04 02:14:21;;;;;;;;;;;2.30;99.90;;;;;;4968452;28;19914;-72
2022/12/04 02:16:53;;;;;;;;;;;2.20;99.90;;;;;;4975026;28;19910;-72
2022/12/04 02:19:21;;;;;;;;;;;2.20;99.90;;;;;;4987506;28;20204;-72
2022/12/04 02:21:48;;;;;;;;;;;2.20;99.90;;;;;;4975255;28;19910;-72
2022/12/04 02:24:32;;;;;;;;;;;2.30;99.90;;;;;;4982316;28;20133;-70
2022/12/04 02:27:00;;;;;;;;;;;2.20;99.90;;;;;;4988951;28;19917;-72
2022/12/04 02:29:35;;;;;;;;;;;2.10;99.90;;;;;;4976141;28;20378;-73
2022/12/04 02:32:18;;;;;;;;;;;2.20;99.90;;;;;;4974421;28;19988;-71
2022/12/04 02:34:56;;;;;;;;;;;2.30;99.90;;;;;;4971216;28;19910;-72
2022/12/04 02:37:33;;;;;;;;;;;2.20;99.90;;;;;;4967881;28;20131;-73
2022/12/04 02:40:03;;;;;;;;;;;2.20;99.90;;;;;;4980943;28;19921;-71
2022/12/04 02:42:38;;;;;;;;;;;2.30;99.90;;;;;;4980950;28;20176;-71
2022/12/04 02:45:07;;;;;;;;;;;2.30;99.90;;;;;;4983514;28;20100;-71
2022/12/04 02:47:35;;;;;;;;;;;2.40;99.90;;;;;;4970800;28;19910;-72
2022/12/04 02:50:03;;;;;;;;;;;2.30;99.90;;;;;;4996223;28;19961;-72
2022/12/04 02:52:32;;;;;;;;;;;2.40;99.90;;;;;;4974739;28;19977;-72
2022/12/04 02:55:01;;;;;;;;;;;2.40;99.90;;;;;;4966129;28;20158;-71
2022/12/04 02:57:30;;;;;;;;;;;2.40;99.90;;;;;;4966516;28;20324;-72
2022/12/04 02:59:56;;;;;;;;;;;2.50;99.90;;;;;;4964324;28;20575;-72
2022/12/04 03:02:31;;;;;;;;;;;2.50;99.90;;;;;;4968278;28;19997;-70
2022/12/04 03:04:59;;;;;;;;;;;2.60;99.90;;;;;;4969679;28;19914;-71
2022/12/04 03:07:31;;;;;;;;;;;2.60;99.90;;;;;;4966551;28;19921;-72
2022/12/04 03:09:59;;;;;;;;;;;2.50;99.90;;;;;;4961691;28;20132;-72
2022/12/04 03:12:27;;;;;;;;;;;2.40;99.90;;;;;;4974119;28;20423;-71
2022/12/04 03:14:55;;;;;;;;;;;2.50;99.90;;;;;;4970299;28;20035;-71
2022/12/04 03:17:34;;;;;;;;;;;2.50;99.90;;;;;;4992718;28;19957;-71
2022/12/04 03:20:03;;;;;;;;;;;2.50;99.90;;;;;;4992809;28;19980;-72
2022/12/04 03:22:30;;;;;;;;;;;2.50;99.90;;;;;;4959329;28;19961;-71
2022/12/04 03:24:56;;;;;;;;;;;2.40;99.90;;;;;;4980875;28;19925;-70
2022/12/04 03:27:21;;;;;;;;;;;2.50;99.90;;;;;;4984190;28;20307;-70
2022/12/04 03:29:50;;;;;;;;;;;2.50;99.90;;;;;;5020957;28;19925;-72
2022/12/04 03:32:23;;;;;;;;;;;2.40;99.90;;;;;;5015638;28;19910;-71
2022/12/04 03:34:55;;;;;;;;;;;2.40;99.90;;;;;;4972544;28;19954;-72
2022/12/04 03:37:42;;;;;;;;;;;2.50;99.90;;;;;;5002881;28;19911;-70
2022/12/04 03:40:10;;;;;;;;;;;2.60;99.90;;;;;;4977543;28;20114;-73
2022/12/04 03:42:41;;;;;;;;;;;2.60;99.90;;;;;;4981164;28;19910;-72
2022/12/04 03:45:19;;;;;;;;;;;2.60;99.90;;;;;;4976819;28;20162;-71
2022/12/04 03:47:50;;;;;;;;;;;2.60;99.90;;;;;;4981648;28;19910;-71
2022/12/04 03:50:20;;;;;;;;;;;2.50;99.90;;;;;;4981687;28;19918;-70
2022/12/04 03:52:58;;;;;;;;;;;2.50;99.90;;;;;;4979833;28;20139;-72
2022/12/04 03:55:45;;;;;;;;;;;2.60;99.90;;;;;;4994262;28;19910;-72
2022/12/04 03:58:14;;;;;;;;;;;2.50;99.90;;;;;;4988125;28;20518;-72
2022/12/04 04:00:41;;;;;;;;;;;2.50;99.90;;;;;;4981113;28;20057;-71
2022/12/04 04:03:09;;;;;;;;;;;2.50;99.90;;;;;;4980027;28;19917;-71
2022/12/04 04:05:35;;;;;;;;;;;2.60;99.90;;;;;;4975866;28;19910;-72
2022/12/04 04:10:48;;;;;;;;;;;2.40;99.90;;;;;;4993553;28;19938;-71
2022/12/04 04:24:26;;;;;;;;;;;2.60;99.90;;;;;;4976887;28;20271;-71
2022/12/04 04:26:52;;;;;;;;;;;2.60;99.90;;;;;;4972613;28;19925;-73
2022/12/04 04:29:18;;;;;;;;;;;2.60;99.90;;;;;;4981721;28;19924;-72
2022/12/04 04:31:59;;;;;;;;;;;2.70;99.90;;;;;;4981123;28;19910;-72
2022/12/04 04:34:32;;;;;;;;;;;2.60;99.90;;;;;;4980361;28;20394;-72
2022/12/04 04:37:09;;;;;;;;;;;2.80;99.90;;;;;;4980047;28;19910;-72
2022/12/04 04:39:53;;;;;;;;;;;2.80;99.90;;;;;;4973890;28;19953;-73
2022/12/04 04:42:37;;;;;;;;;;;2.80;99.90;;;;;;4970952;28;19914;-73
2022/12/04 04:45:18;;;;;;;;;;;2.70;99.90;;;;;;4966503;28;20280;-72
2022/12/04 04:47:46;;;;;;;;;;;2.70;99.90;;;;;;4978858;28;19953;-71
2022/12/04 04:50:12;;;;;;;;;;;2.60;99.90;;;;;;4971779;28;20459;-72
2022/12/04 04:52:39;;;;;;;;;;;2.60;99.90;;;;;;4970473;28;20009;-72
2022/12/04 04:55:06;;;;;;;;;;;2.60;99.90;;;;;;4970297;28;20403;-71
2022/12/04 04:57:34;;;;;;;;;;;2.60;99.90;;;;;;4975631;28;20275;-71
2022/12/04 05:00:01;;;;;;;;;;;2.60;99.90;;;;;;4990525;28;19941;-72
2022/12/04 05:02:26;;;;;;;;;;;2.50;99.90;;;;;;4967873;28;19988;-72
2022/12/04 05:04:52;;;;;;;;;;;2.50;99.90;;;;;;4980781;28;20210;-70
2022/12/04 05:07:17;;;;;;;;;;;2.50;99.90;;;;;;4977414;28;19910;-71
2022/12/04 05:09:43;;;;;;;;;;;2.50;99.90;;;;;;4972713;28;19961;-71
2022/12/04 05:12:09;;;;;;;;;;;2.50;99.90;;;;;;4985577;28;20370;-73
2022/12/04 05:14:34;;;;;;;;;;;2.50;99.90;;;;;;5004160;28;20012;-72
2022/12/04 05:17:00;;;;;;;;;;;2.40;99.90;;;;;;4967839;28;19965;-72
2022/12/04 05:22:09;;;;;;;;;;;2.40;99.90;;;;;;4967692;28;19976;-71
2022/12/04 05:24:35;;;;;;;;;;;2.40;99.90;;;;;;4967245;28;19945;-72
2022/12/04 05:27:00;;;;;;;;;;;2.40;99.90;;;;;;4971180;28;20287;-71
2022/12/04 05:29:26;;;;;;;;;;;2.40;99.90;;;;;;4968326;28;19961;-73
2022/12/04 05:31:51;;;;;;;;;;;2.40;99.90;;;;;;4969437;28;20295;-73
2022/12/04 05:34:17;;;;;;;;;;;2.40;99.90;;;;;;4966812;28;19910;-72
2022/12/04 05:36:42;;;;;;;;;;;2.40;99.90;;;;;;4969336;28;20009;-72
2022/12/04 05:39:08;;;;;;;;;;;2.40;99.90;;;;;;4968296;28;19917;-72
2022/12/04 05:41:33;;;;;;;;;;;2.40;99.90;;;;;;4967915;28;20745;-71
2022/12/04 05:43:59;;;;;;;;;;;2.40;99.90;;;;;;4970812;28;19914;-70
2022/12/04 05:46:24;;;;;;;;;;;2.40;99.90;;;;;;4971584;28;19917;-72
2022/12/04 05:48:50;;;;;;;;;;;2.40;99.90;;;;;;4968672;28;20005;-72
2022/12/04 05:51:16;;;;;;;;;;;2.40;99.90;;;;;;4966716;28;19954;-71
2022/12/04 05:53:41;;;;;;;;;;;2.40;99.90;;;;;;4971099;28;19940;-71
2022/12/04 05:56:07;;;;;;;;;;;2.40;99.90;;;;;;4967547;28;19910;-72
2022/12/04 05:58:33;;;;;;;;;;;2.40;99.90;;;;;;4972015;28;19910;-71
2022/12/04 06:00:59;;;;;;;;;;;2.40;99.90;;;;;;4970833;28;19989;-73
2022/12/04 06:03:24;;;;;;;;;;;2.40;99.90;;;;;;4983904;28;20376;-72
2022/12/04 06:05:50;;;;;;;;;;;2.40;99.90;;;;;;4968451;28;19914;-71
2022/12/04 06:08:16;;;;;;;;;;;2.30;99.90;;;;;;4967354;28;20481;-72
2022/12/04 06:10:41;;;;;;;;;;;2.30;99.90;;;;;;4967602;28;20013;-73
2022/12/04 06:13:07;;;;;;;;;;;2.40;99.90;;;;;;4968211;28;20063;-71
2022/12/04 06:15:38;;;;;;;;;;;2.40;99.90;;;;;;4967954;28;19925;-73
2022/12/04 06:18:04;;;;;;;;;;;2.40;99.90;;;;;;4967008;28;19933;-70
2022/12/04 06:20:30;;;;;;;;;;;2.40;99.90;;;;;;4968295;28;19918;-72
2022/12/04 06:22:55;;;;;;;;;;;2.40;99.90;;;;;;4972465;28;19913;-71
2022/12/04 06:25:21;;;;;;;;;;;2.40;99.90;;;;;;4966561;28;19917;-72
2022/12/04 06:27:46;;;;;;;;;;;2.40;99.90;;;;;;4983334;28;20006;-73
2022/12/04 06:30:12;;;;;;;;;;;2.50;99.90;;;;;;4970196;28;19921;-70
2022/12/04 06:32:37;;;;;;;;;;;2.50;99.90;;;;;;4968346;28;20454;-72
2022/12/04 06:35:03;;;;;;;;;;;2.50;99.90;;;;;;4969317;28;20348;-71
2022/12/04 06:37:28;;;;;;;;;;;2.50;99.90;;;;;;4969569;28;19915;-71
2022/12/04 06:39:54;;;;;;;;;;;2.50;99.90;;;;;;4967807;28;20364;-71
2022/12/04 06:42:19;;;;;;;;;;;2.60;99.90;;;;;;4972429;28;19964;-71
2022/12/04 06:44:45;;;;;;;;;;;2.60;99.90;;;;;;4993647;28;19910;-75
2022/12/04 06:47:10;;;;;;;;;;;2.60;99.90;;;;;;4969305;28;19920;-71
2022/12/04 06:49:36;;;;;;;;;;;2.60;99.90;;;;;;4966616;28;20012;-72
2022/12/04 06:52:02;;;;;;;;;;;2.70;99.90;;;;;;4966539;28;19910;-71
2022/12/04 06:54:27;;;;;;;;;;;2.60;99.90;;;;;;4973606;28;19910;-70
2022/12/04 06:56:53;;;;;;;;;;;2.50;99.90;;;;;;4982933;28;19910;-71
2022/12/04 06:59:18;;;;;;;;;;;2.50;99.90;;;;;;4994709;28;20449;-72
2022/12/04 07:01:44;;;;;;;;;;;2.60;99.90;;;;;;4976710;28;20295;-73
2022/12/04 07:04:09;;;;;;;;;;;2.70;99.90;;;;;;4975860;28;19910;-71
2022/12/04 07:06:36;;;;;;;;;;;2.70;99.90;;;;;;4975858;28;20291;-74
2022/12/04 07:09:09;;;;;;;;;;;2.80;99.90;;;;;;4984258;28;19972;-73
2022/12/04 07:11:34;;;;;;;;;;;2.90;99.90;;;;;;4973934;28;19910;-74
2022/12/04 07:14:00;;;;;;;;;;;2.90;99.90;;;;;;4967614;28;19933;-73
2022/12/04 07:16:26;;;;;;;;;;;2.90;99.90;;;;;;4965125;28;20368;-74
2022/12/04 07:18:52;;;;;;;;;;;2.90;99.90;;;;;;4963940;28;19914;-73
2022/12/04 07:21:19;;;;;;;;;;;2.90;99.90;;;;;;4970520;28;19921;-74
2022/12/04 07:23:47;;;;;;;;;;;2.90;99.90;;;;;;4964450;28;19922;-77
2022/12/04 07:26:13;;;;;;;;;;;2.90;99.90;;;;;;4964547;28;20506;-74
2022/12/04 07:28:39;;;;;;;;;;;2.90;99.90;;;;;;4990175;28;20016;-73
2022/12/04 07:31:09;;;;;;;;;;;2.80;99.90;;;;;;4966129;28;19915;-75
2022/12/04 07:33:35;;;;;;;;;;;2.80;99.90;;;;;;4974861;28;19910;-74
2022/12/04 07:36:01;;;;;;;;;;;2.90;99.90;;;;;;5030365;28;19926;-74
2022/12/04 07:38:28;;;;;;;;;;;2.90;99.90;;;;;;4978390;28;19910;-75
2022/12/04 07:40:57;;;;;;;;;;;2.80;99.90;;;;;;4983540;28;19967;-75
2022/12/04 07:43:22;;;;;;;;;;;2.90;99.90;;;;;;4969907;28;19922;-73
2022/12/04 07:45:48;;;;;;;;;;;2.90;99.90;;;;;;4985798;28;20209;-76
2022/12/04 07:48:13;;;;;;;;;;;2.90;99.90;;;;;;4969956;28;19914;-74
2022/12/04 07:50:39;;;;;;;;;;;2.90;99.90;;;;;;4970342;28;19925;-76
2022/12/04 07:53:04;;;;;;;;;;;2.90;99.90;;;;;;4999219;28;19914;-73
2022/12/04 07:55:30;;;;;;;;;;;2.90;99.90;;;;;;4969199;28;19950;-74
2022/12/04 07:57:55;;;;;;;;;;;3.00;99.90;;;;;;4968187;28;19917;-75
2022/12/04 08:00:21;;;;;;;;;;;2.90;99.90;;;;;;4970092;28;19953;-74
2022/12/04 08:02:48;;;;;;;;;;;2.90;99.90;;;;;;4966860;28;19921;-76
2022/12/04 08:05:13;;;;;;;;;;;2.90;99.90;;;;;;4970210;28;19915;-74
2022/12/04 08:07:39;;;;;;;;;;;3.00;99.90;;;;;;4968625;28;20280;-74
2022/12/04 08:10:05;;;;;;;;;;;3.00;99.90;;;;;;4969066;28;19918;-73
2022/12/04 08:12:31;;;;;;;;;;;2.90;99.90;;;;;;4966369;28;19953;-75
2022/12/04 08:14:57;;;;;;;;;;;2.90;99.90;;;;;;4979472;28;20355;-73
2022/12/04 08:17:22;;;;;;;;;;;2.90;99.90;;;;;;4968125;28;20481;-74
2022/12/04 08:19:48;;;;;;;;;;;2.80;99.90;;;;;;4968573;28;20367;-73
2022/12/04 08:22:13;;;;;;;;;;;2.90;99.90;;;;;;4967480;28;20327;-74
2022/12/04 08:24:39;;;;;;;;;;;2.90;99.90;;;;;;4969842;28;19918;-74
2022/12/04 08:27:05;;;;;;;;;;;2.90;99.90;;;;;;4968456;28;19910;-74
2022/12/04 08:29:30;;;;;;;;;;;2.80;99.90;;;;;;5003095;28;20357;-75
2022/12/04 08:31:56;;;;;;;;;;;2.80;99.90;;;;;;4969820;28;19914;-73
2022/12/04 08:34:21;;;;;;;;;;;2.80;99.90;;;;;;4973464;28;19953;-73
2022/12/04 08:36:47;;;;;;;;;;;2.80;99.90;;;;;;4972105;28;19911;-74
2022/12/04 08:39:12;;;;;;;;;;;2.80;99.90;;;;;;4974687;28;19933;-75
2022/12/04 08:41:38;;;;;;;;;;;2.80;99.90;;;;;;4974828;28;19915;-75
2022/12/04 08:44:03;;;;;;;;;;;2.80;99.90;;;;;;4994893;28;19910;-75
2022/12/04 08:46:29;;;;;;;;;;;2.80;99.90;;;;;;4976598;28;19914;-74
2022/12/04 08:48:55;;;;;;;;;;;2.80;99.90;;;;;;4974486;28;20316;-73
2022/12/04 08:51:24;;;;;;;;;;;2.80;99.90;;;;;;4969696;28;19941;-74
2022/12/04 08:53:54;;;;;;;;;;;2.90;99.90;;;;;;4971282;28;19914;-73
2022/12/04 08:56:19;;;;;;;;;;;2.90;99.90;;;;;;4983711;28;19914;-76
2022/12/04 08:58:45;;;;;;;;;;;2.90;99.90;;;;;;4975991;28;20442;-76
2022/12/04 09:01:12;;;;;;;;;;;2.90;99.90;;;;;;4969333;28;20045;-76
2022/12/04 09:03:37;;;;;;;;;;;3.00;99.90;;;;;;4969893;28;19956;-72
2022/12/04 09:06:04;;;;;;;;;;;3.00;99.90;;;;;;4971171;28;19945;-72
2022/12/04 09:08:30;;;;;;;;;;;2.90;99.90;;;;;;4985144;28;20407;-73
2022/12/04 09:11:01;;;;;;;;;;;2.90;99.90;;;;;;4971727;28;19918;-76
2022/12/04 09:13:26;;;;;;;;;;;2.80;99.90;;;;;;4971343;28;19933;-74
2022/12/04 09:15:52;;;;;;;;;;;2.70;99.90;;;;;;4972764;28;19914;-74
2022/12/04 09:18:17;;;;;;;;;;;2.80;99.90;;;;;;4968705;28;19910;-74
2022/12/04 09:20:43;;;;;;;;;;;2.90;99.90;;;;;;4982486;28;19910;-76
2022/12/04 09:23:08;;;;;;;;;;;3.00;99.90;;;;;;4967953;28;19910;-76
2022/12/04 09:25:34;;;;;;;;;;;2.90;99.90;;;;;;4969847;28;19910;-76
2022/12/04 09:28:00;;;;;;;;;;;2.90;99.90;;;;;;4969055;28;19914;-76
2022/12/04 09:30:25;;;;;;;;;;;2.80;99.90;;;;;;4963808;28;19922;-75
2022/12/04 09:32:51;;;;;;;;;;;2.90;99.90;;;;;;4968244;28;19918;-73
2022/12/04 09:35:17;;;;;;;;;;;2.90;99.90;;;;;;4984162;28;19984;-75
2022/12/04 09:37:42;;;;;;;;;;;2.90;99.90;;;;;;4968300;28;20014;-75
2022/12/04 09:40:17;;;;;;;;;;;2.90;99.90;;;;;;4970927;28;19910;-76
2022/12/04 09:42:44;;;;;;;;;;;2.90;99.90;;;;;;4967249;28;19913;-74
2022/12/04 09:45:10;;;;;;;;;;;2.90;99.90;;;;;;4972601;28;20378;-74
2022/12/04 09:47:38;;;;;;;;;;;2.90;99.90;;;;;;4968748;28;19997;-73
2022/12/04 09:50:05;;;;;;;;;;;2.90;99.90;;;;;;4964712;28;19915;-75
2022/12/04 09:52:34;;;;;;;;;;;2.90;99.90;;;;;;4971399;28;20005;-73
2022/12/04 09:55:01;;;;;;;;;;;3.00;99.90;;;;;;4983367;28;20358;-75
2022/12/04 09:57:47;;;;;;;;;;;3.10;99.90;;;;;;4967373;28;20001;-75
2022/12/04 10:00:14;;;;;;;;;;;3.00;99.90;;;;;;4967912;28;19926;-75
2022/12/04 10:02:41;;;;;;;;;;;3.00;99.90;;;;;;4967018;28;20330;-73
2022/12/04 10:05:14;;;;;;;;;;;3.00;99.90;;;;;;4968048;28;19938;-74
2022/12/04 10:07:53;;;;;;;;;;;2.90;99.90;;;;;;4968840;28;19914;-76
2022/12/04 10:10:26;;;;;;;;;;;2.90;99.90;;;;;;4967928;28;19941;-73
2022/12/04 10:13:10;;;;;;;;;;;3.00;99.90;;;;;;4966570;28;19910;-74
2022/12/04 10:15:48;;;;;;;;;;;3.10;99.90;;;;;;4967986;28;20633;-75
2022/12/04 10:18:28;;;;;;;;;;;3.20;99.90;;;;;;4967594;28;19921;-74
2022/12/04 10:20:54;;;;;;;;;;;3.10;99.90;;;;;;4957726;28;19936;-76
2022/12/04 10:23:39;;;;;;;;;;;3.00;99.90;;;;;;4967682;28;19914;-73
2022/12/04 10:26:08;;;;;;;;;;;3.00;99.90;;;;;;4966934;28;19910;-74
2022/12/04 10:28:37;;;;;;;;;;;3.00;99.90;;;;;;4965071;28;19917;-73
2022/12/04 10:31:04;;;;;;;;;;;3.00;99.90;;;;;;4968608;28;20045;-74
2022/12/04 10:33:49;;;;;;;;;;;2.90;99.90;;;;;;4981452;28;19914;-74
2022/12/04 10:36:19;;;;;;;;;;;3.00;99.90;;;;;;4966712;28;20010;-75
2022/12/04 10:39:05;;;;;;;;;;;3.00;99.90;;;;;;4968496;28;20355;-74
2022/12/04 10:41:44;;;;;;;;;;;3.10;99.90;;;;;;4963788;28;19915;-75
2022/12/04 10:44:13;;;;;;;;;;;3.00;99.90;;;;;;4963925;28;20120;-75
2022/12/04 10:46:40;;;;;;;;;;;3.00;99.90;;;;;;4984409;28;19957;-76
2022/12/04 10:49:19;;;;;;;;;;;3.00;99.90;;;;;;4968200;28;19910;-74
2022/12/04 10:51:45;;;;;;;;;;;3.10;99.90;;;;;;4969478;28;19961;-73
2022/12/04 10:54:14;;;;;;;;;;;3.10;99.90;;;;;;4968253;28;19918;-74
2022/12/04 10:56:48;;;;;;;;;;;3.00;99.90;;;;;;4968743;28;19914;-76
2022/12/04 10:59:14;;;;;;;;;;;3.00;99.90;;;;;;4975693;28;19937;-75
2022/12/04 11:01:40;;;;;;;;;;;3.00;99.90;;;;;;4985177;28;19914;-76
2022/12/04 11:04:18;;;;;;;;;;;3.10;99.90;;;;;;4986650;28;19916;-75
2022/12/04 11:06:44;;;;;;;;;;;3.10;99.90;;;;;;5014496;28;20215;-74
2022/12/04 11:09:21;;;;;;;;;;;3.00;99.90;;;;;;4984409;28;19914;-77
2022/12/04 11:11:47;;;;;;;;;;;3.10;99.90;;;;;;4993516;28;19914;-74
2022/12/04 11:14:14;;;;;;;;;;;3.00;99.90;;;;;;4972540;28;19921;-74
2022/12/04 11:16:44;;;;;;;;;;;2.90;99.90;;;;;;4972554;28;19914;-75
2022/12/04 11:19:24;;;;;;;;;;;2.90;99.90;;;;;;4973150;28;19964;-75
2022/12/04 11:21:50;;;;;;;;;;;2.90;99.90;;;;;;4988154;28;19972;-75
2022/12/04 11:24:21;;;;;;;;;;;2.90;99.90;;;;;;4991525;28;19918;-76
2022/12/04 11:26:47;;;;;;;;;;;2.80;99.90;;;;;;4974037;28;19949;-73
2022/12/04 11:29:14;;;;;;;;;;;2.80;99.90;;;;;;4969897;28;20388;-73
2022/12/04 11:31:40;;;;;;;;;;;2.70;99.90;;;;;;4993774;28;19914;-74
2022/12/04 11:34:07;;;;;;;;;;;2.70;99.90;;;;;;4971108;28;19957;-73
2022/12/04 11:36:34;;;;;;;;;;;2.70;99.90;;;;;;4989106;28;20381;-73
2022/12/04 11:39:12;;;;;;;;;;;2.60;99.90;;;;;;4971769;28;20303;-75
2022/12/04 11:41:38;;;;;;;;;;;2.60;99.90;;;;;;4984557;28;19922;-73
2022/12/04 11:44:20;;;;;;;;;;;2.50;99.90;;;;;;4971004;28;19988;-74
2022/12/04 11:46:51;;;;;;;;;;;2.60;99.90;;;;;;4975663;28;19914;-72
2022/12/04 11:49:23;;;;;;;;;;;2.70;99.90;;;;;;4968562;28;19910;-72
2022/12/04 11:52:08;;;;;;;;;;;2.70;99.90;;;;;;4985805;28;19925;-73
2022/12/04 11:54:33;;;;;;;;;;;2.60;99.90;;;;;;4966225;28;19918;-73
2022/12/04 11:57:11;;;;;;;;;;;2.70;99.90;;;;;;4982918;28;19957;-74
2022/12/04 11:59:51;;;;;;;;;;;2.70;99.90;;;;;;4980817;28;19918;-74
2022/12/04 12:02:38;;;;;;;;;;;2.70;99.90;;;;;;4965657;28;19926;-74
2022/12/04 12:05:13;;;;;;;;;;;2.70;99.90;;;;;;4979955;28;19941;-73
2022/12/04 12:07:47;;;;;;;;;;;2.80;99.90;;;;;;4974520;28;19918;-74
2022/12/04 12:10:31;;;;;;;;;;;2.80;99.90;;;;;;4967547;28;19922;-73
2022/12/04 12:12:56;;;;;;;;;;;2.80;99.90;;;;;;4966669;28;19921;-73
2022/12/04 12:15:21;;;;;;;;;;;2.70;99.90;;;;;;4971700;28;20284;-74
2022/12/04 12:17:53;;;;;;;;;;;2.70;99.90;;;;;;4978086;28;20008;-74
2022/12/04 12:20:22;;;;;;;;;;;2.80;99.90;;;;;;4977182;28;19925;-74
2022/12/04 12:22:47;;;;;;;;;;;2.80;99.90;;;;;;4965200;28;19918;-72
2022/12/04 12:25:18;;;;;;;;;;;2.80;99.90;;;;;;4967874;28;19924;-75
2022/12/04 12:27:43;;;;;;;;;;;2.80;99.90;;;;;;4966745;28;19941;-74
2022/12/04 12:30:15;;;;;;;;;;;2.70;99.90;;;;;;5000424;28;20371;-74
2022/12/04 12:32:51;;;;;;;;;;;2.80;99.90;;;;;;4969759;28;20291;-74
2022/12/04 12:35:28;;;;;;;;;;;2.70;99.90;;;;;;4962118;28;19944;-76
2022/12/04 12:37:58;;;;;;;;;;;2.70;99.90;;;;;;4966465;28;19972;-75
2022/12/04 12:40:31;;;;;;;;;;;2.70;99.90;;;;;;4974246;28;19910;-76
2022/12/04 12:43:00;;;;;;;;;;;2.70;99.90;;;;;;4965074;28;19934;-75
2022/12/04 12:45:40;;;;;;;;;;;2.70;99.90;;;;;;4967546;28;19915;-75
2022/12/04 12:48:09;;;;;;;;;;;2.70;99.90;;;;;;4971791;28;19910;-74
2022/12/04 12:50:44;;;;;;;;;;;2.70;99.90;;;;;;4965942;28;19914;-75
2022/12/04 12:53:18;;;;;;;;;;;2.70;99.90;;;;;;4988719;28;19968;-74
2022/12/04 12:55:50;;;;;;;;;;;2.70;99.90;;;;;;4983867;28;19910;-74
2022/12/04 12:58:16;;;;;;;;;;;2.80;99.90;;;;;;4989146;28;20005;-74
2022/12/04 13:00:49;;;;;;;;;;;2.80;99.90;;;;;;4977035;28;20343;-74
2022/12/04 13:03:33;;;;;;;;;;;2.80;99.90;;;;;;4976615;28;20005;-76
2022/12/04 13:06:02;;;;;;;;;;;2.90;99.90;;;;;;4968369;28;19917;-74
2022/12/04 13:08:31;;;;;;;;;;;2.90;99.90;;;;;;4981134;28;19915;-72
2022/12/04 13:11:05;;;;;;;;;;;2.90;99.90;;;;;;4973414;28;19914;-73
2022/12/04 13:13:38;;;;;;;;;;;2.90;99.90;;;;;;4982661;28;19953;-74
2022/12/04 13:16:07;;;;;;;;;;;2.90;99.90;;;;;;4978645;28;19910;-74
2022/12/04 13:18:36;;;;;;;;;;;2.80;99.90;;;;;;4974434;28;19921;-73
2022/12/04 13:21:05;;;;;;;;;;;2.80;99.90;;;;;;4983940;28;20342;-74
2022/12/04 13:23:33;;;;;;;;;;;2.80;99.90;;;;;;4973407;28;19914;-74
2022/12/04 13:26:09;;;;;;;;;;;2.80;99.90;;;;;;4978604;28;19914;-74
2022/12/04 13:28:53;;;;;;;;;;;2.90;99.90;;;;;;4966886;28;20131;-73
2022/12/04 13:31:19;;;;;;;;;;;2.90;99.90;;;;;;4981511;28;20369;-73
2022/12/04 13:33:57;;;;;;;;;;;2.80;99.90;;;;;;4969966;28;20340;-74
2022/12/04 13:36:26;;;;;;;;;;;2.80;99.90;;;;;;4975099;28;19960;-73
2022/12/04 13:38:58;;;;;;;;;;;2.90;99.90;;;;;;4986029;28;19933;-72
2022/12/04 13:41:25;;;;;;;;;;;2.90;99.90;;;;;;4968193;28;19914;-73
2022/12/04 13:43:51;;;;;;;;;;;2.90;99.90;;;;;;4974335;28;19914;-74
2022/12/04 13:46:23;;;;;;;;;;;2.90;99.90;;;;;;4966254;28;19914;-74
2022/12/04 13:48:48;;;;;;;;;;;2.80;99.90;;;;;;4975788;28;19924;-74
2022/12/04 13:51:22;;;;;;;;;;;2.90;99.90;;;;;;4969882;28;19914;-75
2022/12/04 13:53:59;;;;;;;;;;;2.90;99.90;;;;;;4971718;28;19910;-74
2022/12/04 13:56:26;;;;;;;;;;;2.80;99.90;;;;;;4988115;28;19914;-73
2022/12/04 13:59:03;;;;;;;;;;;2.90;99.90;;;;;;4978783;28;19960;-74
2022/12/04 14:01:34;;;;;;;;;;;2.80;99.90;;;;;;4978673;28;19952;-74
2022/12/04 14:04:00;;;;;;;;;;;2.80;99.90;;;;;;4964950;28;20068;-72
2022/12/04 14:06:41;;;;;;;;;;;2.80;99.90;;;;;;5000650;28;19970;-74
2022/12/04 14:09:17;;;;;;;;;;;2.80;99.90;;;;;;4973513;28;20256;-73
2022/12/04 14:11:44;;;;;;;;;;;2.80;99.90;;;;;;4972032;28;19986;-73
2022/12/04 14:14:23;;;;;;;;;;;2.80;99.90;;;;;;4968495;28;20375;-74
2022/12/04 14:16:49;;;;;;;;;;;2.80;99.90;;;;;;4967298;28;20292;-74
2022/12/04 14:19:29;;;;;;;;;;;2.80;99.90;;;;;;4971011;28;19910;-72
2022/12/04 14:21:55;;;;;;;;;;;2.80;99.90;;;;;;4969058;28;20553;-73
2022/12/04 14:24:33;;;;;;;;;;;2.80;99.90;;;;;;4972608;28;19914;-74
2022/12/04 14:27:00;;;;;;;;;;;2.80;99.90;;;;;;4979236;28;19914;-71
2022/12/04 14:29:31;;;;;;;;;;;2.80;99.90;;;;;;4970590;28;19953;-73
2022/12/04 14:31:59;;;;;;;;;;;2.80;99.90;;;;;;4970631;28;19909;-73
2022/12/04 14:34:26;;;;;;;;;;;2.90;99.90;;;;;;4970854;28;20013;-74
2022/12/04 14:36:53;;;;;;;;;;;2.90;99.90;;;;;;4976069;28;19909;-73
2022/12/04 14:39:33;;;;;;;;;;;2.90;99.90;;;;;;4967939;28;20378;-74
2022/12/04 14:42:04;;;;;;;;;;;2.90;99.90;;;;;;4969273;28;19910;-73
2022/12/04 14:44:30;;;;;;;;;;;2.80;99.90;;;;;;4965199;28;20134;-74
2022/12/04 14:47:24;;;;;;;;;;;2.90;99.90;;;;;;4967029;28;19910;-74
2022/12/04 14:50:03;;;;;;;;;;;2.90;99.90;;;;;;4953106;28;19925;-75
2022/12/04 14:52:42;;;;;;;;;;;2.90;99.90;;;;;;4968467;28;20161;-72
2022/12/04 14:55:07;;;;;;;;;;;2.90;99.90;;;;;;4968510;28;20564;-75
2022/12/04 14:57:51;;;;;;;;;;;2.90;99.90;;;;;;4981039;28;20009;-73
2022/12/04 15:00:21;;;;;;;;;;;2.90;99.90;;;;;;4964498;28;19980;-74